createdAt,value
2017-01-25T06:27:06.616Z,0
2017-01-25T06:27:46.100Z,0
2017-01-25T06:28:21.687Z,0
2017-01-25T06:28:57.056Z,0
2017-01-25T06:29:29.781Z,0
2017-01-25T06:30:02.506Z,0
2017-01-25T06:30:35.246Z,0
2017-01-25T06:31:08.058Z,0
2017-01-25T06:31:40.782Z,0
2017-01-25T06:32:13.504Z,0
2017-01-25T06:32:46.229Z,0
2017-01-25T06:33:18.959Z,0
2017-01-25T06:33:51.752Z,0
2017-01-25T06:34:24.475Z,0
2017-01-25T06:34:57.205Z,0
2017-01-25T06:35:29.951Z,0
2017-01-25T06:36:02.673Z,0
2017-01-25T06:36:35.415Z,0
2017-01-25T06:37:08.703Z,0
2017-01-25T06:37:41.574Z,0
2017-01-25T06:38:16.125Z,0
2017-01-25T06:38:49.769Z,0
2017-01-25T06:39:22.891Z,0
2017-01-25T06:39:55.645Z,0
2017-01-25T06:40:29.545Z,0
2017-01-25T06:41:02.279Z,0
2017-01-25T06:41:36.195Z,0
2017-01-25T06:42:10.414Z,0
2017-01-25T06:42:46.492Z,0
2017-01-25T06:43:20.931Z,0
2017-01-25T06:43:55.198Z,0
2017-01-25T06:44:29.585Z,0
2017-01-25T06:45:05.637Z,0
2017-01-25T06:45:40.017Z,0
2017-01-25T06:46:16.811Z,0
2017-01-25T06:46:51.475Z,0
2017-01-25T06:47:25.684Z,0
2017-01-25T06:47:59.826Z,0
2017-01-25T06:48:32.643Z,0
2017-01-25T06:49:05.374Z,0
2017-01-25T06:49:38.133Z,0
2017-01-25T06:50:10.885Z,0
2017-01-25T06:50:43.613Z,0
2017-01-25T06:51:17.153Z,0
2017-01-25T06:51:50.703Z,0
2017-01-25T06:52:23.439Z,0
2017-01-25T06:52:56.482Z,0
2017-01-25T06:53:29.202Z,4
2017-01-25T06:54:02.335Z,4
2017-01-25T06:54:35.559Z,4
2017-01-25T06:55:08.323Z,0
2017-01-25T06:55:41.162Z,0
2017-01-25T06:56:13.891Z,0
2017-01-25T06:56:46.619Z,4
2017-01-25T06:57:19.353Z,4
2017-01-25T06:57:52.232Z,4
2017-01-25T06:58:25.043Z,0
2017-01-25T06:58:57.766Z,4
2017-01-25T06:59:31.219Z,4
2017-01-25T07:00:04.033Z,4
2017-01-25T07:00:36.777Z,4
2017-01-25T07:01:09.564Z,8
2017-01-25T07:01:42.720Z,4
2017-01-25T07:02:16.095Z,8
2017-01-25T07:02:48.865Z,8
2017-01-25T07:03:21.601Z,4
2017-01-25T07:03:54.325Z,8
2017-01-25T07:04:27.089Z,8
2017-01-25T07:04:59.809Z,12
2017-01-25T07:05:33.555Z,8
2017-01-25T07:06:06.279Z,8
2017-01-25T07:06:41.554Z,12
2017-01-25T07:07:14.390Z,12
2017-01-25T07:07:47.253Z,8
2017-01-25T07:08:20.911Z,12
2017-01-25T07:08:54.745Z,12
2017-01-25T07:09:29.491Z,16
2017-01-25T07:10:04.512Z,16
2017-01-25T07:10:38.229Z,12
2017-01-25T07:11:10.963Z,16
2017-01-25T07:11:44.663Z,16
2017-01-25T07:12:20.132Z,16
2017-01-25T07:12:56.529Z,16
2017-01-25T07:13:29.377Z,16
2017-01-25T07:14:02.114Z,20
2017-01-25T07:14:34.852Z,20
2017-01-25T07:15:08.986Z,20
2017-01-25T07:15:48.028Z,24
2017-01-25T07:16:23.018Z,20
2017-01-25T07:16:56.869Z,24
2017-01-25T07:17:30.834Z,28
2017-01-25T07:18:06.755Z,28
2017-01-25T07:18:40.758Z,28
2017-01-25T07:19:14.726Z,32
2017-01-25T07:19:49.518Z,32
2017-01-25T07:20:28.061Z,32
2017-01-25T07:21:05.226Z,36
2017-01-25T07:21:39.274Z,36
2017-01-25T07:22:12.921Z,36
2017-01-25T07:22:52.104Z,36
2017-01-25T07:23:29.616Z,40
2017-01-25T07:24:02.980Z,44
2017-01-25T07:24:36.807Z,40
2017-01-25T07:25:10.848Z,44
2017-01-25T07:25:48.369Z,44
2017-01-25T07:26:23.426Z,44
2017-01-25T07:26:57.908Z,48
2017-01-25T07:27:37.142Z,52
2017-01-25T07:28:10.469Z,52
2017-01-25T07:28:43.613Z,52
2017-01-25T07:29:16.471Z,56
2017-01-25T07:29:53.037Z,56
2017-01-25T07:30:28.674Z,60
2017-01-25T07:31:03.758Z,64
2017-01-25T07:31:39.400Z,68
2017-01-25T07:32:16.042Z,68
2017-01-25T07:32:53.537Z,72
2017-01-25T07:33:30.226Z,76
2017-01-25T07:34:07.038Z,80
2017-01-25T07:34:41.741Z,84
2017-01-25T07:35:15.817Z,84
2017-01-25T07:35:49.787Z,88
2017-01-25T07:36:23.538Z,92
2017-01-25T07:36:57.322Z,92
2017-01-25T07:37:31.200Z,96
2017-01-25T07:38:05.665Z,100
2017-01-25T07:38:39.563Z,100
2017-01-25T07:39:14.313Z,104
2017-01-25T07:39:49.331Z,104
2017-01-25T07:40:23.047Z,108
2017-01-25T07:40:56.285Z,108
2017-01-25T07:41:30.033Z,108
2017-01-25T07:42:03.707Z,112
2017-01-25T07:42:37.255Z,112
2017-01-25T07:43:11.367Z,112
2017-01-25T07:43:45.544Z,112
2017-01-25T07:44:19.284Z,116
2017-01-25T07:44:53.946Z,116
2017-01-25T07:45:26.921Z,116
2017-01-25T07:46:01.531Z,112
2017-01-25T07:46:37.033Z,116
2017-01-25T07:47:12.354Z,116
2017-01-25T07:47:47.038Z,112
2017-01-25T07:48:22.410Z,116
2017-01-25T07:48:55.947Z,116
2017-01-25T07:49:28.758Z,116
2017-01-25T07:50:03.016Z,116
2017-01-25T07:50:37.755Z,120
2017-01-25T07:51:12.168Z,120
2017-01-25T07:51:47.033Z,120
2017-01-25T07:52:20.940Z,124
2017-01-25T07:52:54.093Z,124
2017-01-25T07:53:27.488Z,128
2017-01-25T07:54:00.689Z,128
2017-01-25T07:54:36.038Z,132
2017-01-25T07:55:09.091Z,136
2017-01-25T07:55:44.545Z,140
2017-01-25T07:56:20.328Z,140
2017-01-25T07:56:54.569Z,144
2017-01-25T07:57:28.349Z,144
2017-01-25T07:58:02.513Z,144
2017-01-25T07:58:39.038Z,144
2017-01-25T07:59:12.902Z,144
2017-01-25T07:59:47.588Z,144
2017-01-25T08:00:20.470Z,144
2017-01-25T08:00:54.303Z,148
2017-01-25T08:01:27.342Z,152
2017-01-25T08:02:01.040Z,152
2017-01-25T08:02:35.058Z,156
2017-01-25T08:03:07.826Z,160
2017-01-25T08:03:40.936Z,164
2017-01-25T08:04:13.767Z,172
2017-01-25T08:04:46.523Z,176
2017-01-25T08:05:19.291Z,184
2017-01-25T08:05:52.045Z,184
2017-01-25T08:06:24.772Z,180
2017-01-25T08:06:59.243Z,184
2017-01-25T08:07:32.048Z,184
2017-01-25T08:08:04.817Z,184
2017-01-25T08:08:37.558Z,188
2017-01-25T08:09:10.335Z,200
2017-01-25T08:09:43.154Z,204
2017-01-25T08:10:18.216Z,212
2017-01-25T08:10:51.894Z,228
2017-01-25T08:11:25.374Z,240
2017-01-25T08:11:58.345Z,244
2017-01-25T08:12:31.076Z,252
2017-01-25T08:13:03.814Z,248
2017-01-25T08:13:38.816Z,248
2017-01-25T08:14:12.940Z,244
2017-01-25T08:14:45.884Z,248
2017-01-25T08:15:18.652Z,248
2017-01-25T08:15:51.397Z,252
2017-01-25T08:16:24.447Z,252
2017-01-25T08:16:57.195Z,256
2017-01-25T08:17:29.948Z,264
2017-01-25T08:18:03.559Z,268
2017-01-25T08:18:36.298Z,272
2017-01-25T08:19:14.578Z,276
2017-01-25T08:19:49.553Z,284
2017-01-25T08:20:23.214Z,292
2017-01-25T08:20:59.560Z,292
2017-01-25T08:21:34.680Z,288
2017-01-25T08:22:10.777Z,296
2017-01-25T08:22:46.542Z,308
2017-01-25T08:23:20.807Z,316
2017-01-25T08:23:56.051Z,324
2017-01-25T08:24:29.524Z,332
2017-01-25T08:25:07.062Z,332
2017-01-25T08:25:41.808Z,336
2017-01-25T08:26:14.540Z,340
2017-01-25T08:26:47.275Z,360
2017-01-25T08:27:20.011Z,388
2017-01-25T08:27:54.203Z,412
2017-01-25T08:28:28.090Z,428
2017-01-25T08:29:00.812Z,440
2017-01-25T08:29:33.615Z,452
2017-01-25T08:30:07.058Z,448
2017-01-25T08:30:42.165Z,444
2017-01-25T08:31:15.699Z,448
2017-01-25T08:31:48.431Z,456
2017-01-25T08:32:22.145Z,476
2017-01-25T08:32:54.904Z,508
2017-01-25T08:33:27.639Z,520
2017-01-25T08:34:00.360Z,520
2017-01-25T08:34:33.239Z,524
2017-01-25T08:35:06.161Z,536
2017-01-25T08:35:38.954Z,536
2017-01-25T08:36:11.687Z,544
2017-01-25T08:36:44.756Z,564
2017-01-25T08:37:17.534Z,568
2017-01-25T08:37:50.322Z,560
2017-01-25T08:38:24.208Z,580
2017-01-25T08:38:59.547Z,640
2017-01-25T08:39:34.063Z,680
2017-01-25T08:40:08.628Z,680
2017-01-25T08:40:41.445Z,644
2017-01-25T08:41:15.112Z,632
2017-01-25T08:41:48.760Z,660
2017-01-25T08:42:22.014Z,696
2017-01-25T08:42:54.875Z,720
2017-01-25T08:43:27.642Z,744
2017-01-25T08:44:00.439Z,784
2017-01-25T08:44:33.222Z,820
2017-01-25T08:45:05.978Z,852
2017-01-25T08:45:38.740Z,868
2017-01-25T08:46:12.481Z,860
2017-01-25T08:46:45.382Z,844
2017-01-25T08:47:18.555Z,844
2017-01-25T08:47:52.016Z,860
2017-01-25T08:48:26.016Z,868
2017-01-25T08:48:59.314Z,864
2017-01-25T08:49:32.307Z,856
2017-01-25T08:50:05.588Z,868
2017-01-25T08:50:39.732Z,900
2017-01-25T08:51:13.425Z,908
2017-01-25T08:51:46.952Z,924
2017-01-25T08:52:19.902Z,932
2017-01-25T08:52:53.620Z,900
2017-01-25T08:53:28.110Z,856
2017-01-25T08:54:02.947Z,860
2017-01-25T08:54:37.378Z,884
2017-01-25T08:55:11.250Z,868
2017-01-25T08:55:44.278Z,844
2017-01-25T08:56:17.064Z,848
2017-01-25T08:56:51.740Z,872
2017-01-25T08:57:25.899Z,880
2017-01-25T08:57:58.936Z,876
2017-01-25T08:58:31.663Z,864
2017-01-25T08:59:04.918Z,840
2017-01-25T08:59:38.035Z,848
2017-01-25T09:00:10.911Z,864
2017-01-25T09:00:43.664Z,868
2017-01-25T09:01:16.430Z,872
2017-01-25T09:01:49.267Z,876
2017-01-25T09:02:22.038Z,872
2017-01-25T09:02:54.772Z,852
2017-01-25T09:03:27.518Z,836
2017-01-25T09:04:00.249Z,840
2017-01-25T09:04:32.983Z,852
2017-01-25T09:05:05.716Z,868
2017-01-25T09:05:44.074Z,908
2017-01-25T09:06:21.075Z,920
2017-01-25T09:07:01.082Z,896
2017-01-25T09:07:40.581Z,860
2017-01-25T09:08:21.600Z,860
2017-01-25T09:09:55.796Z,956
2017-01-25T09:10:40.562Z,968
2017-01-25T09:11:17.901Z,996
2017-01-25T09:11:56.695Z,992
2017-01-25T09:12:35.577Z,976
2017-01-25T09:13:17.587Z,968
2017-01-25T09:13:55.972Z,964
2017-01-25T09:14:33.819Z,956
2017-01-25T09:15:11.061Z,952
2017-01-25T09:15:45.731Z,952
2017-01-25T09:16:23.579Z,980
2017-01-25T09:16:59.566Z,1012
2017-01-25T09:17:34.267Z,1040
2017-01-25T09:18:11.191Z,1068
2017-01-25T09:18:50.083Z,1116
2017-01-25T09:19:27.574Z,1180
2017-01-25T09:20:02.951Z,1216
2017-01-25T09:20:38.470Z,1252
2017-01-25T09:21:15.585Z,1284
2017-01-25T09:21:48.664Z,1340
2017-01-25T09:22:24.583Z,1420
2017-01-25T09:23:00.571Z,1516
2017-01-25T09:23:39.352Z,1640
2017-01-25T09:24:14.709Z,1680
2017-01-25T09:24:59.585Z,1716
2017-01-25T09:25:36.125Z,1692
2017-01-25T09:26:12.210Z,1744
2017-01-25T09:26:49.100Z,1900
2017-01-25T09:27:29.069Z,2052
2017-01-25T09:28:04.316Z,2100
2017-01-25T09:28:39.943Z,2008
2017-01-25T09:29:16.575Z,2008
2017-01-25T09:29:51.961Z,1992
2017-01-25T09:30:26.320Z,1944
2017-01-25T09:31:04.827Z,2008
2017-01-25T09:31:39.285Z,2116
2017-01-25T09:32:15.080Z,2144
2017-01-25T09:32:48.155Z,2196
2017-01-25T09:33:24.491Z,2260
2017-01-25T09:34:02.093Z,2332
2017-01-25T09:34:39.699Z,2412
2017-01-25T09:35:17.086Z,2420
2017-01-25T09:35:53.472Z,2360
2017-01-25T09:36:30.007Z,2316
2017-01-25T09:37:09.111Z,2268
2017-01-25T09:37:45.092Z,2240
2017-01-25T09:38:19.572Z,2248
2017-01-25T09:39:00.601Z,2272
2017-01-25T09:39:37.475Z,2332
2017-01-25T09:40:13.168Z,2436
2017-01-25T09:40:47.137Z,2504
2017-01-25T09:41:22.189Z,2516
2017-01-25T09:41:58.364Z,2500
2017-01-25T09:42:32.572Z,2456
2017-01-25T09:43:07.289Z,2436
2017-01-25T09:43:41.597Z,2484
2017-01-25T09:44:17.838Z,2524
2017-01-25T09:44:52.819Z,2572
2017-01-25T09:45:26.995Z,2560
2017-01-25T09:46:04.094Z,2500
2017-01-25T09:46:39.341Z,2376
2017-01-25T09:47:13.989Z,2376
2017-01-25T09:47:49.783Z,2376
2017-01-25T09:48:23.749Z,2372
2017-01-25T09:48:58.709Z,2412
2017-01-25T09:49:33.922Z,2480
2017-01-25T09:50:07.821Z,2508
2017-01-25T09:50:41.677Z,2552
2017-01-25T09:51:15.577Z,2584
2017-01-25T09:51:49.261Z,2632
2017-01-25T09:52:22.936Z,2624
2017-01-25T09:52:56.019Z,2588
2017-01-25T09:53:28.998Z,2524
2017-01-25T09:54:06.906Z,2500
2017-01-25T09:54:41.564Z,2504
2017-01-25T09:55:16.409Z,2504
2017-01-25T09:55:50.979Z,2504
2017-01-25T09:56:28.593Z,2536
2017-01-25T09:57:03.583Z,2556
2017-01-25T09:57:41.080Z,2540
2017-01-25T09:58:16.953Z,2528
2017-01-25T09:58:54.086Z,2528
2017-01-25T09:59:31.146Z,2508
2017-01-25T10:00:10.601Z,2528
2017-01-25T10:00:48.593Z,2552
2017-01-25T10:01:23.739Z,2572
2017-01-25T10:02:00.097Z,2556
2017-01-25T10:02:34.145Z,2552
2017-01-25T10:03:07.448Z,2516
2017-01-25T10:03:41.427Z,2468
2017-01-25T10:04:17.851Z,2452
2017-01-25T10:04:52.228Z,2456
2017-01-25T10:05:27.259Z,2472
2017-01-25T10:06:02.571Z,2516
2017-01-25T10:06:37.086Z,2544
2017-01-25T10:07:12.204Z,2592
2017-01-25T10:07:47.669Z,2604
2017-01-25T10:08:23.477Z,2588
2017-01-25T10:08:58.093Z,2548
2017-01-25T10:09:32.015Z,2512
2017-01-25T10:10:05.912Z,2496
2017-01-25T10:10:39.741Z,2464
2017-01-25T10:11:15.087Z,2452
2017-01-25T10:11:47.903Z,2452
2017-01-25T10:12:20.644Z,2468
2017-01-25T10:12:55.895Z,2484
2017-01-25T10:13:29.959Z,2512
2017-01-25T10:14:04.001Z,2540
2017-01-25T10:14:40.974Z,2524
2017-01-25T10:15:18.593Z,2572
2017-01-25T10:15:54.225Z,2580
2017-01-25T10:16:32.593Z,2584
2017-01-25T10:17:07.156Z,2508
2017-01-25T10:17:40.638Z,2652
2017-01-25T10:18:14.477Z,2672
2017-01-25T10:18:49.228Z,2660
2017-01-25T10:19:23.306Z,2628
2017-01-25T10:19:57.656Z,2436
2017-01-25T10:20:31.794Z,2640
2017-01-25T10:21:05.507Z,2608
2017-01-25T10:21:39.573Z,2596
2017-01-25T10:22:12.353Z,2536
2017-01-25T10:22:45.086Z,2588
2017-01-25T10:23:17.839Z,2636
2017-01-25T10:23:50.577Z,2604
2017-01-25T10:24:23.316Z,2600
2017-01-25T10:24:57.096Z,2696
2017-01-25T10:25:29.838Z,2468
2017-01-25T10:26:02.580Z,2400
2017-01-25T10:26:35.308Z,2640
2017-01-25T10:27:08.045Z,2380
2017-01-25T10:27:40.780Z,2516
2017-01-25T10:28:13.530Z,2828
2017-01-25T10:28:47.095Z,2888
2017-01-25T10:29:19.827Z,2684
2017-01-25T10:29:52.564Z,2892
2017-01-25T10:30:25.293Z,2996
2017-01-25T10:30:58.263Z,2572
2017-01-25T10:31:31.000Z,2660
2017-01-25T10:32:03.744Z,2796
2017-01-25T10:32:36.479Z,2936
2017-01-25T10:33:09.225Z,3184
2017-01-25T10:33:41.978Z,3212
2017-01-25T10:34:14.707Z,3212
2017-01-25T10:34:47.459Z,2884
2017-01-25T10:35:20.207Z,3096
2017-01-25T10:35:52.990Z,2844
2017-01-25T10:36:34.520Z,2772
2017-01-25T10:37:12.814Z,2924
2017-01-25T10:37:45.737Z,2704
2017-01-25T10:38:21.100Z,2680
2017-01-25T10:38:55.265Z,2868
2017-01-25T10:39:29.120Z,2684
2017-01-25T10:40:04.758Z,2912
2017-01-25T10:40:37.912Z,2668
2017-01-25T10:41:10.678Z,2760
2017-01-25T10:41:43.393Z,2880
2017-01-25T10:42:16.125Z,2940
2017-01-25T10:42:48.860Z,2832
2017-01-25T10:43:21.656Z,2736
2017-01-25T10:43:54.403Z,2576
2017-01-25T10:44:27.135Z,2616
2017-01-25T10:44:59.895Z,2656
2017-01-25T10:45:32.759Z,2792
2017-01-25T10:46:05.505Z,2888
2017-01-25T10:46:38.235Z,3068
2017-01-25T10:47:10.968Z,2800
2017-01-25T10:47:43.710Z,2752
2017-01-25T10:48:16.444Z,2796
2017-01-25T10:48:49.191Z,2708
2017-01-25T10:49:21.928Z,2660
2017-01-25T10:49:54.664Z,2616
2017-01-25T10:50:27.433Z,2568
2017-01-25T10:51:00.157Z,2520
2017-01-25T10:51:32.898Z,2440
2017-01-25T10:52:05.643Z,2380
2017-01-25T10:52:38.374Z,2388
2017-01-25T10:53:11.103Z,2456
2017-01-25T10:53:43.863Z,2532
2017-01-25T10:54:16.608Z,2576
2017-01-25T10:54:49.357Z,2608
2017-01-25T10:55:22.093Z,2620
2017-01-25T10:55:54.835Z,2648
2017-01-25T10:56:27.555Z,2684
2017-01-25T10:57:00.309Z,2764
2017-01-25T10:57:33.099Z,2804
2017-01-25T10:58:06.822Z,2788
2017-01-25T10:58:40.839Z,2796
2017-01-25T10:59:15.477Z,2848
2017-01-25T10:59:49.031Z,2940
2017-01-25T11:00:22.715Z,2916
2017-01-25T11:00:56.017Z,2952
2017-01-25T11:01:28.823Z,2976
2017-01-25T11:02:01.563Z,3016
2017-01-25T11:02:34.294Z,3008
2017-01-25T11:03:07.263Z,2920
2017-01-25T11:03:40.218Z,2876
2017-01-25T11:04:13.836Z,2872
2017-01-25T11:04:47.429Z,2908
2017-01-25T11:05:21.414Z,2944
2017-01-25T11:05:56.879Z,2960
2017-01-25T11:06:36.129Z,2964
2017-01-25T11:07:13.131Z,2964
2017-01-25T11:07:50.630Z,2956
2017-01-25T11:08:27.432Z,2960
2017-01-25T11:09:04.338Z,2952
2017-01-25T11:09:46.161Z,2960
2017-01-25T11:10:22.306Z,2944
2017-01-25T11:12:15.823Z,2904
2017-01-25T11:12:49.964Z,2920
2017-01-25T11:13:23.342Z,2948
2017-01-25T11:13:56.103Z,2992
2017-01-25T11:14:28.843Z,3020
2017-01-25T11:15:03.381Z,3028
2017-01-25T11:15:36.135Z,2996
2017-01-25T11:16:10.064Z,2948
2017-01-25T11:16:43.100Z,2892
2017-01-25T11:17:16.809Z,2860
2017-01-25T11:17:50.096Z,2828
2017-01-25T11:18:23.254Z,2780
2017-01-25T11:18:57.128Z,2724
2017-01-25T11:19:29.977Z,2716
2017-01-25T11:20:04.762Z,2740
2017-01-25T11:20:38.444Z,2788
2017-01-25T11:21:11.303Z,2800
2017-01-25T11:21:44.023Z,2776
2017-01-25T11:22:16.809Z,2828
2017-01-25T11:22:49.579Z,2824
2017-01-25T11:23:22.431Z,2832
2017-01-25T11:23:58.911Z,2888
2017-01-25T11:24:33.074Z,2992
2017-01-25T11:25:10.453Z,3000
2017-01-25T11:25:49.419Z,2960
2017-01-25T11:26:25.912Z,2992
2017-01-25T11:27:03.920Z,3060
2017-01-25T11:27:38.416Z,3100
2017-01-25T11:28:13.354Z,3076
2017-01-25T11:28:48.462Z,2992
2017-01-25T11:29:23.624Z,2920
2017-01-25T11:29:58.126Z,2924
2017-01-25T11:30:31.612Z,3016
2017-01-25T11:31:04.718Z,3100
2017-01-25T11:31:37.888Z,3124
2017-01-25T11:32:11.728Z,3164
2017-01-25T11:32:44.972Z,3188
2017-01-25T11:33:21.383Z,3184
2017-01-25T11:33:57.384Z,3152
2017-01-25T11:34:33.134Z,3084
2017-01-25T11:35:10.745Z,3036
2017-01-25T11:35:47.464Z,3032
2017-01-25T11:36:22.629Z,3028
2017-01-25T11:36:59.639Z,3028
2017-01-25T11:37:33.238Z,3064
2017-01-25T11:38:07.727Z,3116
2017-01-25T11:38:41.598Z,3120
2017-01-25T11:39:32.246Z,3112
2017-01-25T11:40:06.947Z,3128
2017-01-25T11:40:40.758Z,3132
2017-01-25T11:41:14.410Z,3132
2017-01-25T11:41:51.635Z,3112
2017-01-25T11:42:27.473Z,3132
2017-01-25T11:43:02.696Z,3148
2017-01-25T11:43:38.636Z,3168
2017-01-25T11:44:22.143Z,3180
2017-01-25T11:44:59.741Z,3132
2017-01-25T11:45:39.635Z,3032
2017-01-25T11:46:21.138Z,3020
2017-01-25T11:47:05.149Z,3100
2017-01-25T11:47:42.632Z,3200
2017-01-25T11:48:22.762Z,3168
2017-01-25T11:49:03.672Z,3060
2017-01-25T11:49:40.648Z,2948
2017-01-25T11:50:21.166Z,2868
2017-01-25T11:50:59.150Z,2808
2017-01-25T11:51:34.926Z,2784
2017-01-25T11:52:16.661Z,2756
2017-01-25T11:52:58.644Z,2732
2017-01-25T11:53:41.158Z,2700
2017-01-25T11:54:20.633Z,2668
2017-01-25T11:54:55.400Z,2640
2017-01-25T11:55:31.677Z,2620
2017-01-25T11:56:09.353Z,2612
2017-01-25T11:56:52.156Z,2616
2017-01-25T11:57:30.764Z,2612
2017-01-25T11:58:04.694Z,2580
2017-01-25T11:58:39.034Z,2544
2017-01-25T11:59:12.650Z,2544
2017-01-25T11:59:46.354Z,2528
2017-01-25T12:00:21.011Z,2512
2017-01-25T12:00:54.362Z,2504
2017-01-25T12:01:28.430Z,2500
2017-01-25T12:02:01.740Z,2460
2017-01-25T12:02:38.655Z,2416
2017-01-25T12:03:15.647Z,2404
2017-01-25T12:03:48.807Z,2372
2017-01-25T12:04:24.354Z,2312
2017-01-25T12:05:00.492Z,2284
2017-01-25T12:05:35.644Z,2280
2017-01-25T12:06:11.345Z,2312
2017-01-25T12:06:50.437Z,2380
2017-01-25T12:07:26.139Z,2424
2017-01-25T12:08:00.749Z,2420
2017-01-25T12:08:33.610Z,2388
2017-01-25T12:09:10.200Z,2352
2017-01-25T12:09:49.164Z,2352
2017-01-25T12:10:28.740Z,2412
2017-01-25T12:11:03.141Z,2496
2017-01-25T12:11:41.159Z,2580
2017-01-25T12:12:20.070Z,2624
2017-01-25T12:12:56.647Z,2644
2017-01-25T12:13:30.284Z,2668
2017-01-25T12:14:04.369Z,2628
2017-01-25T12:14:37.823Z,2568
2017-01-25T12:15:11.813Z,2512
2017-01-25T12:15:45.128Z,2488
2017-01-25T12:16:18.012Z,2492
2017-01-25T12:16:50.877Z,2504
2017-01-25T12:17:23.662Z,2500
2017-01-25T12:17:56.440Z,2480
2017-01-25T12:18:30.160Z,2468
2017-01-25T12:19:02.906Z,2456
2017-01-25T12:19:38.201Z,2440
2017-01-25T12:20:10.970Z,2428
2017-01-25T12:20:43.792Z,2416
2017-01-25T12:21:16.611Z,2412
2017-01-25T12:21:49.385Z,2404
2017-01-25T12:22:22.141Z,2412
2017-01-25T12:22:54.861Z,2380
2017-01-25T12:23:27.603Z,2340
2017-01-25T12:24:00.369Z,2292
2017-01-25T12:24:33.132Z,2264
2017-01-25T12:25:05.882Z,2236
2017-01-25T12:25:39.192Z,2200
2017-01-25T12:26:12.796Z,2152
2017-01-25T12:26:45.611Z,2120
2017-01-25T12:27:18.416Z,2084
2017-01-25T12:27:52.491Z,2064
2017-01-25T12:28:25.327Z,2060
2017-01-25T12:28:58.268Z,2068
2017-01-25T12:29:31.022Z,2080
2017-01-25T12:30:03.762Z,2088
2017-01-25T12:30:36.508Z,2084
2017-01-25T12:31:09.325Z,2096
2017-01-25T12:31:42.070Z,2136
2017-01-25T12:32:14.877Z,2184
2017-01-25T12:32:49.288Z,2204
2017-01-25T12:33:22.041Z,2196
2017-01-25T12:33:54.900Z,2168
2017-01-25T12:34:31.166Z,2124
2017-01-25T12:35:03.962Z,2100
2017-01-25T12:35:39.152Z,2104
2017-01-25T12:36:11.872Z,2128
2017-01-25T12:36:45.233Z,2168
2017-01-25T12:37:18.959Z,2208
2017-01-25T12:37:52.363Z,2228
2017-01-25T12:38:25.110Z,2212
2017-01-25T12:38:57.867Z,2156
2017-01-25T12:39:30.630Z,2052
2017-01-25T12:40:03.400Z,1948
2017-01-25T12:40:36.130Z,1864
2017-01-25T12:41:08.933Z,1788
2017-01-25T12:41:42.695Z,1700
2017-01-25T12:42:16.349Z,1620
2017-01-25T12:42:49.078Z,1556
2017-01-25T12:43:21.834Z,1520
2017-01-25T12:43:54.570Z,1528
2017-01-25T12:44:29.245Z,1548
2017-01-25T12:45:02.003Z,1528
2017-01-25T12:45:34.729Z,1464
2017-01-25T12:46:07.462Z,1384
2017-01-25T12:46:40.211Z,1296
2017-01-25T12:47:12.941Z,1224
2017-01-25T12:47:45.702Z,1172
2017-01-25T12:48:18.428Z,1124
2017-01-25T12:48:51.178Z,1084
2017-01-25T12:49:23.970Z,1044
2017-01-25T12:49:58.197Z,1024
2017-01-25T12:50:33.839Z,1004
2017-01-25T12:51:06.638Z,984
2017-01-25T12:51:39.388Z,972
2017-01-25T12:52:12.117Z,964
2017-01-25T12:52:44.867Z,956
2017-01-25T12:53:17.648Z,952
2017-01-25T12:53:51.378Z,932
2017-01-25T12:54:24.855Z,904
2017-01-25T12:54:57.625Z,880
2017-01-25T12:55:31.218Z,860
2017-01-25T12:56:04.928Z,856
2017-01-25T12:56:39.244Z,852
2017-01-25T12:57:11.987Z,852
2017-01-25T12:57:44.700Z,852
2017-01-25T12:58:17.440Z,856
2017-01-25T12:58:50.166Z,856
2017-01-25T12:59:22.905Z,856
2017-01-25T12:59:58.213Z,844
2017-01-25T13:00:31.867Z,824
2017-01-25T13:01:06.028Z,808
2017-01-25T13:01:38.764Z,808
2017-01-25T13:02:12.907Z,832
2017-01-25T13:02:47.319Z,864
2017-01-25T13:03:20.967Z,880
2017-01-25T13:03:56.263Z,876
2017-01-25T13:04:34.225Z,860
2017-01-25T13:05:07.943Z,852
2017-01-25T13:05:42.684Z,844
2017-01-25T13:06:18.317Z,832
2017-01-25T13:06:51.724Z,828
2017-01-25T13:07:26.057Z,816
2017-01-25T13:08:01.466Z,808
2017-01-25T13:08:35.214Z,800
2017-01-25T13:09:08.017Z,792
2017-01-25T13:09:41.393Z,788
2017-01-25T13:10:14.135Z,788
2017-01-25T13:10:46.946Z,800
2017-01-25T13:11:21.173Z,808
2017-01-25T13:11:54.166Z,816
2017-01-25T13:12:29.182Z,824
2017-01-25T13:13:02.224Z,828
2017-01-25T13:13:35.620Z,828
2017-01-25T13:14:08.344Z,824
2017-01-25T13:14:41.117Z,832
2017-01-25T13:15:14.069Z,848
2017-01-25T13:15:46.861Z,868
2017-01-25T13:16:19.950Z,888
2017-01-25T13:16:52.729Z,896
2017-01-25T13:17:25.460Z,900
2017-01-25T13:17:59.790Z,888
2017-01-25T13:18:33.220Z,872
2017-01-25T13:19:06.759Z,856
2017-01-25T13:19:39.524Z,848
2017-01-25T13:20:12.351Z,836
2017-01-25T13:20:45.185Z,820
2017-01-25T13:21:17.943Z,804
2017-01-25T13:21:50.791Z,800
2017-01-25T13:22:23.810Z,788
2017-01-25T13:22:56.648Z,796
2017-01-25T13:23:30.261Z,808
2017-01-25T13:24:03.437Z,812
2017-01-25T13:24:36.892Z,808
2017-01-25T13:25:09.621Z,800
2017-01-25T13:25:42.363Z,800
2017-01-25T13:26:15.173Z,808
2017-01-25T13:26:47.908Z,816
2017-01-25T13:27:20.964Z,824
2017-01-25T13:27:55.256Z,836
2017-01-25T13:28:28.053Z,836
2017-01-25T13:29:00.781Z,836
2017-01-25T13:29:33.593Z,828
2017-01-25T13:30:06.329Z,812
2017-01-25T13:30:40.256Z,796
2017-01-25T13:31:12.981Z,792
2017-01-25T13:31:45.932Z,796
2017-01-25T13:32:19.330Z,800
2017-01-25T13:32:52.232Z,804
2017-01-25T13:33:24.965Z,812
2017-01-25T13:33:58.202Z,816
2017-01-25T13:34:31.323Z,816
2017-01-25T13:35:05.800Z,816
2017-01-25T13:35:39.140Z,828
2017-01-25T13:36:13.178Z,848
2017-01-25T13:36:46.004Z,852
2017-01-25T13:37:18.751Z,840
2017-01-25T13:37:51.525Z,840
2017-01-25T13:38:24.559Z,844
2017-01-25T13:38:58.249Z,840
2017-01-25T13:39:32.250Z,840
2017-01-25T13:40:05.068Z,836
2017-01-25T13:40:38.752Z,828
2017-01-25T13:41:11.587Z,824
2017-01-25T13:41:46.046Z,808
2017-01-25T13:42:19.606Z,788
2017-01-25T13:42:52.448Z,772
2017-01-25T13:43:25.189Z,772
2017-01-25T13:43:57.940Z,776
2017-01-25T13:44:30.794Z,780
2017-01-25T13:45:03.594Z,776
2017-01-25T13:45:37.138Z,760
2017-01-25T13:46:10.256Z,748
2017-01-25T13:46:43.197Z,740
2017-01-25T13:47:15.995Z,736
2017-01-25T13:47:48.745Z,740
2017-01-25T13:48:22.273Z,764
2017-01-25T13:48:55.028Z,776
2017-01-25T13:49:27.876Z,780
2017-01-25T13:50:01.219Z,776
2017-01-25T13:50:35.161Z,752
2017-01-25T13:51:08.222Z,736
2017-01-25T13:51:40.964Z,720
2017-01-25T13:52:13.693Z,712
2017-01-25T13:52:46.429Z,712
2017-01-25T13:53:19.625Z,720
2017-01-25T13:53:55.638Z,728
2017-01-25T13:54:28.379Z,736
2017-01-25T13:55:01.146Z,756
2017-01-25T13:55:33.875Z,772
2017-01-25T13:56:06.599Z,784
2017-01-25T13:56:40.004Z,776
2017-01-25T13:57:13.513Z,776
2017-01-25T13:57:47.763Z,780
2017-01-25T13:58:20.786Z,788
2017-01-25T13:58:53.501Z,792
2017-01-25T13:59:26.677Z,800
2017-01-25T13:59:59.634Z,800
2017-01-25T14:00:32.403Z,792
2017-01-25T14:01:05.185Z,796
2017-01-25T14:01:38.464Z,796
2017-01-25T14:02:11.223Z,804
2017-01-25T14:02:43.962Z,800
2017-01-25T14:03:16.790Z,788
2017-01-25T14:03:49.612Z,776
2017-01-25T14:04:22.733Z,776
2017-01-25T14:04:56.245Z,772
2017-01-25T14:05:30.539Z,776
2017-01-25T14:06:03.267Z,768
2017-01-25T14:06:36.482Z,772
2017-01-25T14:07:09.198Z,784
2017-01-25T14:07:43.194Z,788
2017-01-25T14:08:15.989Z,784
2017-01-25T14:08:49.022Z,780
2017-01-25T14:09:26.715Z,768
2017-01-25T14:09:59.559Z,772
2017-01-25T14:10:32.280Z,784
2017-01-25T14:11:05.855Z,800
2017-01-25T14:11:39.520Z,804
2017-01-25T14:12:12.918Z,808
2017-01-25T14:12:46.130Z,820
2017-01-25T14:13:18.992Z,836
2017-01-25T14:13:51.742Z,844
2017-01-25T14:14:24.657Z,848
2017-01-25T14:14:57.686Z,856
2017-01-25T14:15:30.417Z,860
2017-01-25T14:16:03.159Z,864
2017-01-25T14:16:36.173Z,860
2017-01-25T14:17:09.365Z,848
2017-01-25T14:17:44.716Z,840